createdAt,value
2023-06-10T00:00:03.975Z,19.21
2023-06-10T00:03:11.095Z,19.19
2023-06-10T00:05:47.925Z,19.17
2023-06-10T00:08:21.121Z,19.15
2023-06-10T00:10:56.040Z,19.14
2023-06-10T00:13:28.419Z,19.12
2023-06-10T00:16:00.884Z,19.09
2023-06-10T00:18:33.578Z,19.06
2023-06-10T00:21:06.163Z,19.04
2023-06-10T00:23:39.661Z,19.00
2023-06-10T00:26:14.401Z,18.96
2023-06-10T00:28:49.109Z,18.94
2023-06-10T00:31:21.828Z,18.94
2023-06-10T00:33:54.257Z,18.91
2023-06-10T00:36:26.711Z,18.89
2023-06-10T00:38:59.073Z,18.88
2023-06-10T00:41:32.703Z,18.85
2023-06-10T00:44:05.138Z,18.83
2023-06-10T00:46:38.799Z,18.81
2023-06-10T00:49:15.710Z,18.77
2023-06-10T00:51:53.258Z,18.74
2023-06-10T00:54:27.102Z,18.71
2023-06-10T00:56:58.985Z,18.66
2023-06-10T00:59:33.656Z,18.60
2023-06-10T01:02:06.840Z,18.56
2023-06-10T01:04:39.386Z,18.50
2023-06-10T01:07:22.737Z,18.46
2023-06-10T01:10:04.287Z,18.41
2023-06-10T01:12:41.569Z,18.35
2023-06-10T01:15:17.795Z,18.29
2023-06-10T01:18:05.995Z,18.25
2023-06-10T01:20:41.624Z,18.18
2023-06-10T01:23:18.288Z,18.13
2023-06-10T01:25:59.734Z,18.07
2023-06-10T01:28:38.829Z,18.00
2023-06-10T01:31:19.827Z,17.96
2023-06-10T01:33:56.270Z,17.89
2023-06-10T01:36:34.432Z,17.84
2023-06-10T01:39:08.282Z,17.79
2023-06-10T01:41:42.266Z,17.73
2023-06-10T01:44:23.740Z,17.68
2023-06-10T01:46:57.291Z,17.62
2023-06-10T01:49:30.159Z,17.55
2023-06-10T01:52:05.840Z,17.51
2023-06-10T01:54:39.584Z,17.47
2023-06-10T01:57:13.431Z,17.42
2023-06-10T01:59:56.689Z,17.40
2023-06-10T02:02:29.197Z,17.38
2023-06-10T02:05:02.162Z,17.35
2023-06-10T02:07:36.892Z,17.32
2023-06-10T02:10:14.261Z,17.29
2023-06-10T02:12:46.491Z,17.27
2023-06-10T02:15:23.010Z,17.25
2023-06-10T02:18:00.827Z,17.23
2023-06-10T02:20:35.474Z,17.22
2023-06-10T02:23:07.878Z,17.21
2023-06-10T02:25:42.263Z,17.19
2023-06-10T02:28:16.096Z,17.17
2023-06-10T02:30:51.478Z,17.16
2023-06-10T02:33:25.946Z,17.13
2023-06-10T02:35:59.685Z,17.11
2023-06-10T02:38:36.648Z,17.08
2023-06-10T02:41:09.586Z,17.08
2023-06-10T02:43:45.096Z,17.07
2023-06-10T02:46:21.024Z,17.08
2023-06-10T02:48:59.040Z,17.06
2023-06-10T02:51:34.671Z,17.08
2023-06-10T02:54:08.679Z,17.08
2023-06-10T02:56:43.308Z,17.10
2023-06-10T02:59:22.293Z,17.09
2023-06-10T03:02:00.780Z,17.10
2023-06-10T03:04:33.669Z,17.11
2023-06-10T03:07:13.407Z,17.13
2023-06-10T03:09:50.141Z,17.13
2023-06-10T03:12:26.448Z,17.17
2023-06-10T03:14:59.200Z,17.19
2023-06-10T03:17:34.425Z,17.22
2023-06-10T03:20:12.653Z,17.29
2023-06-10T03:22:46.169Z,17.43
2023-06-10T03:25:18.966Z,17.67
2023-06-10T03:27:55.296Z,17.70
2023-06-10T03:30:31.424Z,17.70
2023-06-10T03:33:05.110Z,17.71
2023-06-10T03:35:38.296Z,17.71
2023-06-10T03:38:13.934Z,17.73
2023-06-10T03:40:46.693Z,17.72
2023-06-10T03:43:19.168Z,17.73
2023-06-10T03:49:12.395Z,17.74
2023-06-10T03:51:45.267Z,17.76
2023-06-10T03:54:19.439Z,17.81
2023-06-10T03:56:51.841Z,17.87
2023-06-10T03:59:31.220Z,17.95
2023-06-10T04:02:06.598Z,18.05
2023-06-10T04:04:39.499Z,18.15
2023-06-10T04:07:13.769Z,18.39
2023-06-10T04:09:50.535Z,18.89
2023-06-10T04:12:25.943Z,19.20
2023-06-10T04:15:04.891Z,19.62
2023-06-10T04:17:38.699Z,20.44
2023-06-10T04:20:14.076Z,20.32
2023-06-10T04:22:48.797Z,20.19
2023-06-10T04:25:22.066Z,20.08
2023-06-10T04:28:07.655Z,19.98
2023-06-10T04:30:40.196Z,19.86
2023-06-10T04:33:13.343Z,19.76
2023-06-10T04:35:48.830Z,19.70
2023-06-10T04:38:23.027Z,19.79
2023-06-10T04:41:01.268Z,19.95
2023-06-10T04:43:35.750Z,21.17
2023-06-10T04:46:11.660Z,23.09
2023-06-10T04:48:48.303Z,24.73
2023-06-10T04:51:21.062Z,26.11
2023-06-10T04:53:53.771Z,27.20
2023-06-10T04:56:33.781Z,28.30
2023-06-10T04:59:07.130Z,29.32
2023-06-10T05:01:47.105Z,30.16
2023-06-10T05:04:19.831Z,31.10
2023-06-10T05:06:52.366Z,32.01
2023-06-10T05:09:24.975Z,32.97
2023-06-10T05:12:07.819Z,33.50
2023-06-10T05:14:40.556Z,33.71
2023-06-10T05:17:16.622Z,34.07
2023-06-10T05:19:51.372Z,34.33
2023-06-10T05:22:25.332Z,33.78
2023-06-10T05:25:01.314Z,33.48
2023-06-10T05:27:35.980Z,33.68
2023-06-10T05:30:11.675Z,33.63
2023-06-10T05:32:46.400Z,33.86
2023-06-10T05:35:18.778Z,33.73
2023-06-10T05:37:51.296Z,34.10
2023-06-10T05:40:24.764Z,34.66
2023-06-10T05:42:59.079Z,34.94
2023-06-10T05:45:31.999Z,35.31
2023-06-10T05:48:05.217Z,34.75
2023-06-10T05:50:40.173Z,34.88
2023-06-10T05:53:16.610Z,34.79
2023-06-10T05:55:50.045Z,34.81
2023-06-10T05:58:22.717Z,35.19
2023-06-10T06:00:56.681Z,35.35
2023-06-10T06:03:30.169Z,35.71
2023-06-10T06:06:03.561Z,35.91
2023-06-10T06:08:36.809Z,35.61
2023-06-10T06:11:09.774Z,35.92
2023-06-10T06:13:43.514Z,36.60
2023-06-10T06:16:20.779Z,36.96
2023-06-10T06:18:53.263Z,36.72
2023-06-10T06:21:25.791Z,35.91
2023-06-10T06:23:59.517Z,34.00
2023-06-10T06:26:47.632Z,32.03
2023-06-10T06:29:24.753Z,30.56
2023-06-10T06:31:59.436Z,29.40
2023-06-10T06:34:35.116Z,28.51
2023-06-10T06:37:09.696Z,27.76
2023-06-10T06:40:00.216Z,27.11
2023-06-10T06:42:39.698Z,26.60
2023-06-10T06:45:22.471Z,26.16
2023-06-10T06:48:00.265Z,25.88
2023-06-10T06:50:33.191Z,25.52
2023-06-10T06:53:07.890Z,25.31
2023-06-10T06:55:40.583Z,25.00
2023-06-10T06:58:15.628Z,24.77
2023-06-10T07:00:48.830Z,24.61
2023-06-10T07:03:19.879Z,24.55
2023-06-10T07:05:55.006Z,24.65
2023-06-10T07:08:27.980Z,25.17
2023-06-10T07:11:00.785Z,25.78
2023-06-10T07:13:34.158Z,26.05
2023-06-10T07:16:08.075Z,26.13
2023-06-10T07:18:40.883Z,26.28
2023-06-10T07:21:14.752Z,26.19
2023-06-10T07:24:00.503Z,26.05
2023-06-10T07:26:34.631Z,25.87
2023-06-10T07:29:07.322Z,25.81
2023-06-10T07:31:45.617Z,25.61
2023-06-10T07:34:20.954Z,25.41
2023-06-10T07:36:53.814Z,25.30
2023-06-10T07:39:28.797Z,25.32
2023-06-10T07:42:01.135Z,25.38
2023-06-10T07:44:34.108Z,25.41
2023-06-10T07:47:07.055Z,25.45
2023-06-10T07:49:39.543Z,25.40
2023-06-10T07:52:17.273Z,25.17
2023-06-10T07:54:51.907Z,25.12
2023-06-10T07:57:24.853Z,25.12
2023-06-10T07:59:59.109Z,25.17
2023-06-10T08:02:31.711Z,25.42
2023-06-10T08:05:07.303Z,25.57
2023-06-10T08:07:40.165Z,25.66
2023-06-10T08:10:14.383Z,25.66
2023-06-10T08:12:48.291Z,25.67
2023-06-10T08:15:20.853Z,25.69
2023-06-10T08:17:53.487Z,25.71
2023-06-10T08:20:25.961Z,25.75
2023-06-10T08:23:07.635Z,25.73
2023-06-10T08:25:40.005Z,25.56
2023-06-10T08:28:14.732Z,25.37
2023-06-10T08:30:47.259Z,25.39
2023-06-10T08:33:20.513Z,25.41
2023-06-10T08:35:52.947Z,25.43
2023-06-10T08:38:25.865Z,25.55
2023-06-10T08:41:02.483Z,25.53
2023-06-10T08:43:44.544Z,25.56
2023-06-10T08:46:20.228Z,25.63
2023-06-10T08:48:56.636Z,25.51
2023-06-10T08:51:34.914Z,25.41
2023-06-10T08:54:17.357Z,25.60
2023-06-10T08:56:59.818Z,25.86
2023-06-10T08:59:32.225Z,26.16
2023-06-10T09:02:07.540Z,26.36
2023-06-10T09:04:40.773Z,26.46
2023-06-10T09:07:18.091Z,26.52
2023-06-10T09:09:57.470Z,26.60
2023-06-10T09:12:30.244Z,26.76
2023-06-10T09:15:04.226Z,26.92
2023-06-10T09:17:42.050Z,27.17
2023-06-10T09:20:16.635Z,27.24
2023-06-10T09:22:52.087Z,27.29
2023-06-10T09:25:39.282Z,27.31
2023-06-10T09:28:18.417Z,27.59
2023-06-10T09:30:51.365Z,27.90
2023-06-10T09:33:28.926Z,28.23
2023-06-10T09:36:03.579Z,28.47
2023-06-10T09:38:38.173Z,28.66
2023-06-10T09:41:10.644Z,28.41
2023-06-10T09:43:45.576Z,28.33
2023-06-10T09:46:23.075Z,28.22
2023-06-10T09:49:00.031Z,28.11
2023-06-10T09:51:33.697Z,28.09
2023-06-10T09:54:08.233Z,28.09
2023-06-10T09:56:45.051Z,28.12
2023-06-10T09:59:30.361Z,28.06
2023-06-10T10:02:11.245Z,28.17
2023-06-10T10:04:57.796Z,28.42
2023-06-10T10:07:35.091Z,28.60
2023-06-10T10:10:17.698Z,28.68
2023-06-10T10:13:01.824Z,28.79
2023-06-10T10:15:38.806Z,28.95
2023-06-10T10:18:26.893Z,29.20
2023-06-10T10:21:03.976Z,29.23
2023-06-10T10:23:52.062Z,29.25
2023-06-10T10:26:32.300Z,29.42
2023-06-10T10:29:16.577Z,29.66
2023-06-10T10:31:58.697Z,29.81
2023-06-10T10:34:38.176Z,29.96
2023-06-10T10:37:15.372Z,30.18
2023-06-10T10:39:53.793Z,30.35
2023-06-10T10:42:29.860Z,30.65
2023-06-10T10:45:07.490Z,30.78
2023-06-10T10:47:42.649Z,30.77
2023-06-10T10:50:22.159Z,30.76
2023-06-10T10:53:05.997Z,30.77
2023-06-10T10:55:39.408Z,30.60
2023-06-10T10:58:18.378Z,30.51
2023-06-10T11:00:53.441Z,30.58
2023-06-10T11:03:30.439Z,30.43
2023-06-10T11:06:14.931Z,30.28
2023-06-10T11:08:53.958Z,30.05
2023-06-10T11:11:31.472Z,29.90
2023-06-10T11:14:16.793Z,29.84
2023-06-10T11:16:51.790Z,30.05
2023-06-10T11:19:42.574Z,30.35
2023-06-10T11:22:21.821Z,30.61
2023-06-10T11:25:03.421Z,30.80
2023-06-10T11:27:42.505Z,30.97
2023-06-10T11:30:39.849Z,31.04
2023-06-10T11:33:17.727Z,31.06
2023-06-10T11:35:52.628Z,31.26
2023-06-10T11:38:25.944Z,31.36
2023-06-10T11:40:59.850Z,31.40
2023-06-10T11:43:38.608Z,31.35
2023-06-10T11:46:12.743Z,31.18
2023-06-10T11:48:53.861Z,31.10
2023-06-10T11:51:30.862Z,31.28
2023-06-10T11:54:09.550Z,31.11
2023-06-10T11:56:43.563Z,30.88
2023-06-10T11:59:32.729Z,30.83
2023-06-10T12:02:06.594Z,30.89
2023-06-10T12:04:39.049Z,31.04
2023-06-10T12:07:19.390Z,31.25
2023-06-10T12:10:18.744Z,31.38
2023-06-10T12:12:55.603Z,31.41
2023-06-10T12:15:30.398Z,31.41
2023-06-10T12:18:07.462Z,31.27
2023-06-10T12:20:46.154Z,31.15
2023-06-10T12:23:20.165Z,31.13
2023-06-10T12:26:03.960Z,31.04
2023-06-10T12:28:36.642Z,31.02
2023-06-10T12:31:13.647Z,30.86
2023-06-10T12:33:47.819Z,30.82
2023-06-10T12:36:23.302Z,30.95
2023-06-10T12:39:04.566Z,30.93
2023-06-10T12:41:43.794Z,30.97
2023-06-10T12:44:18.870Z,31.15
2023-06-10T12:47:01.236Z,31.19
2023-06-10T12:49:39.809Z,31.30
2023-06-10T12:52:15.681Z,31.19
2023-06-10T12:54:52.759Z,31.33
2023-06-10T12:57:25.378Z,31.43
2023-06-10T13:00:05.021Z,31.47
2023-06-10T13:02:41.533Z,31.06
2023-06-10T13:05:18.908Z,30.47
2023-06-10T13:07:53.798Z,30.17
2023-06-10T13:10:26.832Z,30.02
2023-06-10T13:13:00.876Z,29.71
2023-06-10T13:15:33.503Z,29.54
2023-06-10T13:18:05.365Z,29.26
2023-06-10T13:20:40.177Z,28.96
2023-06-10T13:23:14.418Z,28.53
2023-06-10T13:25:46.865Z,28.27
2023-06-10T13:28:19.398Z,28.40
2023-06-10T13:30:51.978Z,28.11
2023-06-10T13:33:24.806Z,27.84
2023-06-10T13:35:58.633Z,27.65
2023-06-10T13:38:30.897Z,27.67
2023-06-10T13:41:05.113Z,27.95
2023-06-10T13:43:38.057Z,28.29
2023-06-10T13:46:14.734Z,28.61
2023-06-10T13:48:47.132Z,28.92
2023-06-10T13:51:19.403Z,29.01
2023-06-10T13:53:53.247Z,29.02
2023-06-10T13:56:27.809Z,29.11
2023-06-10T13:59:04.416Z,29.12
2023-06-10T14:02:00.606Z,29.13
2023-06-10T14:04:33.910Z,29.05
2023-06-10T14:07:04.976Z,29.15
2023-06-10T14:12:27.309Z,29.22
2023-06-10T14:15:00.358Z,28.99
2023-06-10T14:17:32.172Z,28.55
2023-06-10T14:20:05.668Z,28.18
2023-06-10T14:22:36.613Z,27.89
2023-06-10T14:25:11.134Z,27.92
2023-06-10T14:27:44.253Z,28.18
2023-06-10T14:30:21.950Z,28.41
2023-06-10T14:32:54.749Z,28.37
2023-06-10T14:35:33.978Z,28.11
2023-06-10T14:38:11.723Z,27.83
2023-06-10T14:40:51.820Z,27.47
2023-06-10T14:43:24.731Z,27.10
2023-06-10T14:46:06.131Z,26.81
2023-06-10T14:48:39.716Z,26.60
2023-06-10T14:51:15.285Z,26.65
2023-06-10T14:53:50.622Z,26.76
2023-06-10T14:56:23.282Z,26.92
2023-06-10T14:58:55.730Z,26.77
2023-06-10T15:01:28.346Z,26.64
2023-06-10T15:04:11.089Z,26.45
2023-06-10T15:06:51.552Z,26.20
2023-06-10T15:09:24.024Z,25.98
2023-06-10T15:11:57.543Z,25.80
2023-06-10T15:14:33.386Z,25.75
2023-06-10T15:17:08.194Z,25.70
2023-06-10T15:19:44.518Z,25.68
2023-06-10T15:22:19.230Z,25.53
2023-06-10T15:24:52.192Z,25.37
2023-06-10T15:27:24.490Z,25.23
2023-06-10T15:29:56.974Z,25.17
2023-06-10T15:32:29.268Z,25.05
2023-06-10T15:35:01.824Z,24.93
2023-06-10T15:37:34.469Z,24.89
2023-06-10T15:40:10.815Z,25.05
2023-06-10T15:42:46.326Z,25.26
2023-06-10T15:45:19.595Z,25.44
2023-06-10T15:47:52.621Z,25.55
2023-06-10T15:50:26.579Z,25.55
2023-06-10T15:53:05.058Z,25.40
2023-06-10T15:55:37.497Z,25.22
2023-06-10T15:58:10.101Z,25.05
2023-06-10T16:00:44.820Z,24.86
2023-06-10T16:03:17.984Z,24.67
2023-06-10T16:05:50.757Z,24.59
2023-06-10T16:08:23.256Z,24.52
2023-06-10T16:10:55.760Z,24.44
2023-06-10T16:13:30.139Z,24.44
2023-06-10T16:16:05.915Z,24.50
2023-06-10T16:18:38.357Z,24.46
2023-06-10T16:21:10.940Z,24.49
2023-06-10T16:23:45.904Z,24.47
2023-06-10T16:26:18.645Z,24.38
2023-06-10T16:28:51.756Z,24.27
2023-06-10T16:31:25.772Z,24.15
2023-06-10T16:34:01.563Z,24.03
2023-06-10T16:36:39.085Z,23.93
2023-06-10T16:39:16.358Z,23.84
2023-06-10T16:41:53.942Z,23.77
2023-06-10T16:44:26.850Z,23.69
2023-06-10T16:46:59.283Z,23.64
2023-06-10T16:49:32.104Z,23.58
2023-06-10T16:52:10.535Z,23.57
2023-06-10T16:54:51.920Z,23.54
2023-06-10T16:57:24.493Z,23.50
2023-06-10T16:59:57.138Z,23.44
2023-06-10T17:02:29.861Z,23.40
2023-06-10T17:05:02.913Z,23.34
2023-06-10T17:07:35.885Z,23.29
2023-06-10T17:10:10.247Z,23.24
2023-06-10T17:12:42.931Z,23.22
2023-06-10T17:15:16.807Z,23.20
2023-06-10T17:17:49.286Z,23.21
2023-06-10T17:20:22.310Z,23.21
2023-06-10T17:22:54.964Z,23.20
2023-06-10T17:25:30.957Z,23.20
2023-06-10T17:28:03.504Z,23.18
2023-06-10T17:30:36.113Z,23.15
2023-06-10T17:33:08.640Z,23.12
2023-06-10T17:35:41.462Z,23.09
2023-06-10T17:38:18.010Z,23.07
2023-06-10T17:40:50.737Z,23.04
2023-06-10T17:43:23.123Z,22.99
2023-06-10T17:45:57.806Z,22.95
2023-06-10T17:48:30.452Z,22.90
2023-06-10T17:51:03.033Z,22.85
2023-06-10T17:53:35.515Z,22.85
2023-06-10T17:56:08.291Z,22.80
2023-06-10T17:58:41.036Z,22.78
2023-06-10T18:01:16.124Z,22.77
2023-06-10T18:03:48.897Z,22.75
2023-06-10T18:06:21.723Z,22.72
2023-06-10T18:08:54.349Z,22.70
2023-06-10T18:11:27.210Z,22.67
2023-06-10T18:14:00.735Z,22.62
2023-06-10T18:16:33.977Z,22.57
2023-06-10T18:19:08.454Z,22.50
2023-06-10T18:21:41.885Z,22.45
2023-06-10T18:24:16.871Z,22.38
2023-06-10T18:26:49.458Z,22.31
2023-06-10T18:29:21.906Z,22.25
2023-06-10T18:31:55.824Z,22.16
2023-06-10T18:34:30.011Z,22.07
2023-06-10T18:37:02.666Z,21.99
2023-06-10T18:39:36.307Z,21.89
2023-06-10T18:42:13.935Z,21.77
2023-06-10T18:44:49.821Z,21.67
2023-06-10T18:47:22.453Z,21.59
2023-06-10T18:49:55.781Z,21.52
2023-06-10T18:52:28.381Z,21.43
2023-06-10T18:55:01.033Z,21.33
2023-06-10T18:57:33.680Z,21.22
2023-06-10T19:00:07.444Z,21.12
2023-06-10T19:02:40.199Z,21.06
2023-06-10T19:05:15.448Z,21.01
2023-06-10T19:07:47.995Z,20.93
2023-06-10T19:10:21.390Z,20.86
2023-06-10T19:12:54.189Z,20.80
2023-06-10T19:15:29.982Z,20.73
2023-06-10T19:18:02.849Z,20.64
2023-06-10T19:20:35.385Z,20.59
2023-06-10T19:23:09.461Z,20.51
2023-06-10T19:25:42.664Z,20.44
2023-06-10T19:28:16.151Z,20.37
2023-06-10T19:30:49.050Z,20.28
2023-06-10T19:33:21.805Z,20.20
2023-06-10T19:35:56.941Z,20.15
2023-06-10T19:38:31.936Z,20.08
2023-06-10T19:41:06.491Z,20.00
2023-06-10T19:43:39.862Z,19.95
2023-06-10T19:46:13.245Z,19.86
2023-06-10T19:48:46.095Z,19.78
2023-06-10T19:51:19.984Z,19.73
2023-06-10T19:54:00.169Z,19.68
2023-06-10T19:56:33.325Z,19.65
2023-06-10T19:59:09.212Z,19.60
2023-06-10T20:01:55.905Z,19.57
2023-06-10T20:04:33.492Z,19.55
2023-06-10T20:07:06.785Z,19.51
2023-06-10T20:09:40.197Z,19.49
2023-06-10T20:12:19.671Z,19.47
2023-06-10T20:14:54.297Z,19.41
2023-06-10T20:17:27.139Z,19.36
2023-06-10T20:20:06.282Z,19.31
2023-06-10T20:22:38.992Z,19.25
2023-06-10T20:25:18.031Z,19.19
2023-06-10T20:27:54.022Z,19.14
2023-06-10T20:30:30.969Z,19.09
2023-06-10T20:33:03.623Z,19.03
2023-06-10T20:35:36.092Z,18.99
2023-06-10T20:38:08.651Z,18.97
2023-06-10T20:40:41.478Z,18.95
2023-06-10T20:43:22.654Z,18.92
2023-06-10T20:45:58.141Z,18.89
2023-06-10T20:48:30.885Z,18.86
2023-06-10T20:51:03.673Z,18.84
2023-06-10T20:53:36.353Z,18.81
2023-06-10T20:56:09.773Z,18.77
2023-06-10T20:58:42.795Z,18.73
2023-06-10T21:01:15.821Z,18.70
2023-06-10T21:03:51.937Z,18.67
2023-06-10T21:06:25.538Z,18.64
2023-06-10T21:08:58.081Z,18.56
2023-06-10T21:11:30.471Z,18.47
2023-06-10T21:14:02.977Z,18.36
2023-06-10T21:16:36.519Z,18.27
2023-06-10T21:19:09.156Z,18.18
2023-06-10T21:21:41.879Z,18.10
2023-06-10T21:24:17.769Z,18.01
2023-06-10T21:26:51.846Z,17.92
2023-06-10T21:29:26.006Z,17.83
2023-06-10T21:31:59.109Z,17.78
2023-06-10T21:34:31.692Z,17.71
2023-06-10T21:37:04.467Z,17.69
2023-06-10T21:39:36.863Z,17.63
2023-06-10T21:42:10.156Z,17.60
2023-06-10T21:44:43.334Z,17.59
2023-06-10T21:47:19.110Z,17.57
2023-06-10T21:49:53.427Z,17.55
2023-06-10T21:52:26.948Z,17.51
2023-06-10T21:55:00.135Z,17.49
2023-06-10T21:57:32.824Z,17.47
2023-06-10T22:00:14.166Z,17.45
2023-06-10T22:02:46.599Z,17.41
2023-06-10T22:05:21.482Z,17.37
2023-06-10T22:08:04.567Z,17.35
2023-06-10T22:10:37.208Z,17.33
2023-06-10T22:13:09.739Z,17.30
2023-06-10T22:15:42.379Z,17.30
2023-06-10T22:18:17.424Z,17.29
2023-06-10T22:20:52.805Z,17.25
2023-06-10T22:23:27.524Z,17.22
2023-06-10T22:26:00.878Z,17.20
2023-06-10T22:28:33.779Z,17.17
2023-06-10T22:31:07.037Z,17.13
2023-06-10T22:33:39.715Z,17.12
2023-06-10T22:36:12.971Z,17.10
2023-06-10T22:38:47.071Z,17.08
2023-06-10T22:41:17.723Z,17.05
2023-06-10T22:43:52.942Z,17.02
2023-06-10T22:46:25.533Z,17.00
2023-06-10T22:48:58.451Z,16.96
2023-06-10T22:51:34.379Z,16.96
2023-06-10T22:54:08.020Z,16.95
2023-06-10T22:56:40.420Z,16.95
2023-06-10T22:59:14.243Z,16.96
2023-06-10T23:01:46.762Z,16.97
2023-06-10T23:04:19.382Z,16.97
2023-06-10T23:06:52.323Z,16.98
2023-06-10T23:09:24.811Z,16.99
2023-06-10T23:11:57.303Z,16.98
2023-06-10T23:14:30.304Z,16.97
2023-06-10T23:17:05.897Z,16.96
2023-06-10T23:19:44.494Z,16.95
2023-06-10T23:22:19.502Z,16.93
2023-06-10T23:24:53.130Z,16.91
2023-06-10T23:27:25.388Z,16.89
2023-06-10T23:29:59.737Z,16.87
2023-06-10T23:32:36.012Z,16.85
2023-06-10T23:35:16.002Z,16.83
2023-06-10T23:37:49.952Z,16.80
2023-06-10T23:40:23.134Z,16.79
2023-06-10T23:42:55.645Z,16.75
2023-06-10T23:45:29.373Z,16.73
2023-06-10T23:48:01.903Z,16.69
2023-06-10T23:50:37.289Z,16.67
2023-06-10T23:53:14.235Z,16.66
2023-06-10T23:55:46.644Z,16.64
2023-06-10T23:58:19.064Z,16.62
